sensor_id;sensor_type;location;lat;lon;timestamp;pressure;altitude;pressure_sealevel;temperature;humidity
54854;BME280;40747;49.480;8.658;2023-03-01T00:00:10;101347.72;;;-0.66;77.95
54854;BME280;40747;49.480;8.658;2023-03-01T00:02:35;101348.06;;;-0.55;78.36
54854;BME280;40747;49.480;8.658;2023-03-01T00:05:01;101350.78;;;-0.50;78.56
54854;BME280;40747;49.480;8.658;2023-03-01T00:07:26;101341.47;;;-0.45;79.12
54854;BME280;40747;49.480;8.658;2023-03-01T00:09:52;101350.16;;;-0.43;80.39
54854;BME280;40747;49.480;8.658;2023-03-01T00:12:17;101345.44;;;-0.56;80.04
54854;BME280;40747;49.480;8.658;2023-03-01T00:14:42;101346.94;;;-0.63;81.01
54854;BME280;40747;49.480;8.658;2023-03-01T00:17:08;101316.31;;;-0.78;81.09
54854;BME280;40747;49.480;8.658;2023-03-01T00:19:33;101334.94;;;-0.61;80.59
54854;BME280;40747;49.480;8.658;2023-03-01T00:21:58;101349.13;;;-0.48;80.29
54854;BME280;40747;49.480;8.658;2023-03-01T00:24:24;101343.03;;;-0.50;81.15
54854;BME280;40747;49.480;8.658;2023-03-01T00:26:53;101349.84;;;-0.54;80.20
54854;BME280;40747;49.480;8.658;2023-03-01T00:29:20;101347.69;;;-0.67;80.77
54854;BME280;40747;49.480;8.658;2023-03-01T00:31:45;101336.25;;;-0.74;80.95
54854;BME280;40747;49.480;8.658;2023-03-01T00:34:11;101336.09;;;-0.78;81.07
54854;BME280;40747;49.480;8.658;2023-03-01T00:36:36;101342.09;;;-0.79;80.97
54854;BME280;40747;49.480;8.658;2023-03-01T00:39:04;101339.66;;;-0.75;80.99
54854;BME280;40747;49.480;8.658;2023-03-01T00:41:29;101346.44;;;-0.78;79.44
54854;BME280;40747;49.480;8.658;2023-03-01T00:43:55;101352.84;;;-0.67;80.03
54854;BME280;40747;49.480;8.658;2023-03-01T00:46:22;101348.63;;;-0.65;79.75
54854;BME280;40747;49.480;8.658;2023-03-01T00:48:48;101338.53;;;-0.56;78.88
54854;BME280;40747;49.480;8.658;2023-03-01T00:51:25;101327.25;;;-0.58;78.09
54854;BME280;40747;49.480;8.658;2023-03-01T00:53:53;101340.78;;;-0.39;77.49
54854;BME280;40747;49.480;8.658;2023-03-01T00:56:19;101343.09;;;-0.20;77.46
54854;BME280;40747;49.480;8.658;2023-03-01T00:58:45;101331.25;;;-0.11;76.97
54854;BME280;40747;49.480;8.658;2023-03-01T01:03:47;101322.25;;;-0.24;78.56
54854;BME280;40747;49.480;8.658;2023-03-01T01:06:16;101318.13;;;-0.18;78.20
54854;BME280;40747;49.480;8.658;2023-03-01T01:08:42;101322.09;;;0.00;77.92
54854;BME280;40747;49.480;8.658;2023-03-01T01:11:09;101321.00;;;-0.07;78.57
54854;BME280;40747;49.480;8.658;2023-03-01T01:13:35;101317.75;;;-0.30;78.63
54854;BME280;40747;49.480;8.658;2023-03-01T01:16:01;101312.75;;;-0.24;78.43
54854;BME280;40747;49.480;8.658;2023-03-01T01:18:27;101309.22;;;-0.26;78.18
54854;BME280;40747;49.480;8.658;2023-03-01T01:20:52;101313.78;;;-0.19;77.64
54854;BME280;40747;49.480;8.658;2023-03-01T01:23:17;101314.94;;;-0.09;77.96
54854;BME280;40747;49.480;8.658;2023-03-01T01:25:43;101296.06;;;-0.34;77.34
54854;BME280;40747;49.480;8.658;2023-03-01T01:28:08;101296.50;;;-0.18;76.98
54854;BME280;40747;49.480;8.658;2023-03-01T01:30:33;101299.59;;;-0.01;76.58
54854;BME280;40747;49.480;8.658;2023-03-01T01:32:58;101295.44;;;0.04;76.28
54854;BME280;40747;49.480;8.658;2023-03-01T01:35:24;101286.91;;;0.08;76.76
54854;BME280;40747;49.480;8.658;2023-03-01T01:37:49;101263.72;;;0.13;76.23
54854;BME280;40747;49.480;8.658;2023-03-01T01:40:15;101249.25;;;-0.11;75.49
54854;BME280;40747;49.480;8.658;2023-03-01T01:42:40;101268.78;;;0.08;75.14
54854;BME280;40747;49.480;8.658;2023-03-01T01:45:29;101238.28;;;-0.02;75.07
54854;BME280;40747;49.480;8.658;2023-03-01T01:47:59;101259.00;;;-0.02;75.69
54854;BME280;40747;49.480;8.658;2023-03-01T01:50:26;101258.97;;;-0.04;75.74
54854;BME280;40747;49.480;8.658;2023-03-01T01:52:52;101254.78;;;0.02;75.18
54854;BME280;40747;49.480;8.658;2023-03-01T01:55:22;101252.97;;;-0.01;75.60
54854;BME280;40747;49.480;8.658;2023-03-01T01:57:56;101243.31;;;-0.07;75.35
54854;BME280;40747;49.480;8.658;2023-03-01T02:00:27;101261.59;;;-0.02;75.67
54854;BME280;40747;49.480;8.658;2023-03-01T02:02:58;101255.66;;;0.02;75.52
54854;BME280;40747;49.480;8.658;2023-03-01T02:05:46;101257.38;;;0.02;75.34
54854;BME280;40747;49.480;8.658;2023-03-01T02:08:14;101254.59;;;-0.05;75.58
54854;BME280;40747;49.480;8.658;2023-03-01T02:10:42;101238.72;;;-0.17;76.02
54854;BME280;40747;49.480;8.658;2023-03-01T02:13:08;101226.56;;;-0.20;75.78
54854;BME280;40747;49.480;8.658;2023-03-01T02:15:35;101243.28;;;-0.08;75.81
54854;BME280;40747;49.480;8.658;2023-03-01T02:18:04;101246.72;;;-0.08;75.83
54854;BME280;40747;49.480;8.658;2023-03-01T02:23:00;101234.50;;;-0.13;75.70
54854;BME280;40747;49.480;8.658;2023-03-01T02:26:00;101239.81;;;-0.09;75.78
54854;BME280;40747;49.480;8.658;2023-03-01T02:28:32;101229.47;;;-0.09;75.92
54854;BME280;40747;49.480;8.658;2023-03-01T02:30:58;101218.00;;;-0.17;75.85
54854;BME280;40747;49.480;8.658;2023-03-01T02:33:42;101212.03;;;-0.14;75.69
54854;BME280;40747;49.480;8.658;2023-03-01T02:36:24;101210.41;;;-0.11;75.67
54854;BME280;40747;49.480;8.658;2023-03-01T02:38:53;101222.34;;;-0.16;75.88
54854;BME280;40747;49.480;8.658;2023-03-01T02:41:21;101218.31;;;-0.06;75.79
54854;BME280;40747;49.480;8.658;2023-03-01T02:43:47;101204.28;;;-0.13;75.56
54854;BME280;40747;49.480;8.658;2023-03-01T02:46:15;101213.84;;;-0.10;75.51
54854;BME280;40747;49.480;8.658;2023-03-01T02:48:48;101207.09;;;-0.05;75.55
54854;BME280;40747;49.480;8.658;2023-03-01T02:54:24;101207.00;;;-0.08;75.67
54854;BME280;40747;49.480;8.658;2023-03-01T02:56:52;101183.38;;;-0.21;75.80
54854;BME280;40747;49.480;8.658;2023-03-01T02:59:21;101202.66;;;-0.09;75.52
54854;BME280;40747;49.480;8.658;2023-03-01T03:01:47;101193.00;;;-0.17;75.74
54854;BME280;40747;49.480;8.658;2023-03-01T03:04:15;101194.00;;;-0.11;76.07
54854;BME280;40747;49.480;8.658;2023-03-01T03:06:48;101187.09;;;-0.11;75.86
54854;BME280;40747;49.480;8.658;2023-03-01T03:09:14;101187.88;;;-0.13;75.79
54854;BME280;40747;49.480;8.658;2023-03-01T03:11:40;101187.06;;;-0.12;75.67
54854;BME280;40747;49.480;8.658;2023-03-01T03:14:08;101188.75;;;-0.13;75.89
54854;BME280;40747;49.480;8.658;2023-03-01T03:16:40;101176.78;;;-0.09;75.59
54854;BME280;40747;49.480;8.658;2023-03-01T03:19:06;101153.34;;;-0.14;75.08
54854;BME280;40747;49.480;8.658;2023-03-01T03:21:32;101176.94;;;-0.03;75.28
54854;BME280;40747;49.480;8.658;2023-03-01T03:23:58;101169.13;;;-0.05;75.61
54854;BME280;40747;49.480;8.658;2023-03-01T03:26:23;101159.47;;;-0.10;75.21
54854;BME280;40747;49.480;8.658;2023-03-01T03:28:49;101146.38;;;-0.17;75.24
54854;BME280;40747;49.480;8.658;2023-03-01T03:31:14;101128.00;;;-0.26;75.33
54854;BME280;40747;49.480;8.658;2023-03-01T03:33:39;101161.25;;;-0.08;75.69
54854;BME280;40747;49.480;8.658;2023-03-01T03:36:05;101160.38;;;-0.10;75.41
54854;BME280;40747;49.480;8.658;2023-03-01T03:38:30;101151.50;;;-0.18;75.54
54854;BME280;40747;49.480;8.658;2023-03-01T03:41:04;101156.94;;;-0.09;75.39
54854;BME280;40747;49.480;8.658;2023-03-01T03:43:32;101168.16;;;-0.08;75.84
54854;BME280;40747;49.480;8.658;2023-03-01T03:45:58;101150.88;;;-0.09;75.67
54854;BME280;40747;49.480;8.658;2023-03-01T03:48:24;101167.13;;;-0.15;75.80
54854;BME280;40747;49.480;8.658;2023-03-01T03:50:52;101168.91;;;-0.14;75.46
54854;BME280;40747;49.480;8.658;2023-03-01T03:53:19;101155.75;;;-0.22;75.60
54854;BME280;40747;49.480;8.658;2023-03-01T03:55:46;101152.19;;;-0.25;75.80
54854;BME280;40747;49.480;8.658;2023-03-01T03:58:14;101161.84;;;-0.18;75.82
54854;BME280;40747;49.480;8.658;2023-03-01T04:00:43;101160.25;;;-0.13;75.37
54854;BME280;40747;49.480;8.658;2023-03-01T04:03:10;101149.06;;;-0.12;75.30
54854;BME280;40747;49.480;8.658;2023-03-01T04:05:37;101138.75;;;-0.10;75.34
54854;BME280;40747;49.480;8.658;2023-03-01T04:08:03;101143.06;;;-0.11;75.33
54854;BME280;40747;49.480;8.658;2023-03-01T04:10:30;101141.28;;;-0.13;75.28
54854;BME280;40747;49.480;8.658;2023-03-01T04:12:57;101140.34;;;-0.15;75.37
54854;BME280;40747;49.480;8.658;2023-03-01T04:15:23;101144.53;;;-0.21;75.74
54854;BME280;40747;49.480;8.658;2023-03-01T04:17:50;101142.53;;;-0.31;75.94
54854;BME280;40747;49.480;8.658;2023-03-01T04:20:19;101147.66;;;-0.32;76.48
54854;BME280;40747;49.480;8.658;2023-03-01T04:22:59;101137.19;;;-0.37;76.10
54854;BME280;40747;49.480;8.658;2023-03-01T04:25:25;101155.41;;;-0.34;76.62
54854;BME280;40747;49.480;8.658;2023-03-01T04:27:51;101136.50;;;-0.31;75.85
54854;BME280;40747;49.480;8.658;2023-03-01T04:30:16;101166.25;;;-0.15;75.79
54854;BME280;40747;49.480;8.658;2023-03-01T04:32:42;101144.31;;;-0.28;76.02
54854;BME280;40747;49.480;8.658;2023-03-01T04:35:07;101131.22;;;-0.35;76.19
54854;BME280;40747;49.480;8.658;2023-03-01T04:37:33;101150.63;;;-0.19;76.26
54854;BME280;40747;49.480;8.658;2023-03-01T04:40:00;101161.97;;;-0.15;75.82
54854;BME280;40747;49.480;8.658;2023-03-01T04:42:26;101164.75;;;-0.07;75.85
54854;BME280;40747;49.480;8.658;2023-03-01T04:44:51;101155.03;;;-0.16;75.63
54854;BME280;40747;49.480;8.658;2023-03-01T04:47:17;101154.03;;;-0.21;75.52
54854;BME280;40747;49.480;8.658;2023-03-01T04:49:42;101168.31;;;-0.04;76.03
54854;BME280;40747;49.480;8.658;2023-03-01T04:52:08;101167.38;;;-0.06;75.13
54854;BME280;40747;49.480;8.658;2023-03-01T04:54:35;101148.66;;;-0.59;76.08
54854;BME280;40747;49.480;8.658;2023-03-01T04:57:01;101154.59;;;-0.63;76.90
54854;BME280;40747;49.480;8.658;2023-03-01T04:59:27;101176.06;;;-0.66;77.52
54854;BME280;40747;49.480;8.658;2023-03-01T05:01:54;101170.16;;;-0.62;77.80
54854;BME280;40747;49.480;8.658;2023-03-01T05:04:23;101174.78;;;-0.50;76.98
54854;BME280;40747;49.480;8.658;2023-03-01T05:06:49;101170.34;;;-0.56;77.41
54854;BME280;40747;49.480;8.658;2023-03-01T05:09:15;101154.63;;;-0.62;77.64
54854;BME280;40747;49.480;8.658;2023-03-01T05:11:41;101158.03;;;-0.63;78.12
54854;BME280;40747;49.480;8.658;2023-03-01T05:14:07;101171.72;;;-0.67;77.73
54854;BME280;40747;49.480;8.658;2023-03-01T05:16:33;101170.06;;;-0.65;77.69
54854;BME280;40747;49.480;8.658;2023-03-01T05:18:59;101165.53;;;-0.72;78.07
54854;BME280;40747;49.480;8.658;2023-03-01T05:21:24;101170.16;;;-0.62;77.92
54854;BME280;40747;49.480;8.658;2023-03-01T05:23:49;101173.75;;;-0.57;78.24
54854;BME280;40747;49.480;8.658;2023-03-01T05:26:17;101176.22;;;-0.61;78.15
54854;BME280;40747;49.480;8.658;2023-03-01T05:28:43;101168.31;;;-0.66;78.69
54854;BME280;40747;49.480;8.658;2023-03-01T05:31:08;101164.16;;;-0.61;78.69
54854;BME280;40747;49.480;8.658;2023-03-01T05:33:39;101174.81;;;-0.80;79.16
54854;BME280;40747;49.480;8.658;2023-03-01T05:36:06;101186.91;;;-1.08;80.05
54854;BME280;40747;49.480;8.658;2023-03-01T05:38:32;101181.13;;;-1.27;81.31
54854;BME280;40747;49.480;8.658;2023-03-01T05:40:57;101172.47;;;-1.29;82.14
54854;BME280;40747;49.480;8.658;2023-03-01T05:43:23;101125.81;;;-1.61;82.26
54854;BME280;40747;49.480;8.658;2023-03-01T05:45:48;101179.38;;;-1.28;81.78
54854;BME280;40747;49.480;8.658;2023-03-01T05:48:14;101167.16;;;-1.34;82.20
54854;BME280;40747;49.480;8.658;2023-03-01T05:50:44;101180.31;;;-1.26;81.93
54854;BME280;40747;49.480;8.658;2023-03-01T05:53:18;101170.72;;;-1.30;81.59
54854;BME280;40747;49.480;8.658;2023-03-01T05:55:46;101168.34;;;-1.24;81.64
54854;BME280;40747;49.480;8.658;2023-03-01T05:58:17;101167.63;;;-1.18;81.35
54854;BME280;40747;49.480;8.658;2023-03-01T06:00:44;101166.88;;;-1.14;81.34
54854;BME280;40747;49.480;8.658;2023-03-01T06:03:12;101165.28;;;-1.10;81.16
54854;BME280;40747;49.480;8.658;2023-03-01T06:05:39;101169.63;;;-1.09;80.80
54854;BME280;40747;49.480;8.658;2023-03-01T06:08:04;101166.97;;;-1.12;80.71
54854;BME280;40747;49.480;8.658;2023-03-01T06:10:30;101159.75;;;-0.94;80.29
54854;BME280;40747;49.480;8.658;2023-03-01T06:12:55;101148.75;;;-0.87;80.13
54854;BME280;40747;49.480;8.658;2023-03-01T06:15:21;101164.91;;;-0.65;79.07
54854;BME280;40747;49.480;8.658;2023-03-01T06:17:47;101157.25;;;-0.60;78.01
54854;BME280;40747;49.480;8.658;2023-03-01T06:20:21;101161.91;;;-0.48;78.25
54854;BME280;40747;49.480;8.658;2023-03-01T06:22:48;101154.19;;;-0.47;77.74
54854;BME280;40747;49.480;8.658;2023-03-01T06:25:19;101163.94;;;-0.38;76.87
54854;BME280;40747;49.480;8.658;2023-03-01T06:27:45;101171.63;;;-0.40;76.65
54854;BME280;40747;49.480;8.658;2023-03-01T06:30:13;101167.69;;;-0.27;76.80
54854;BME280;40747;49.480;8.658;2023-03-01T06:32:39;101164.22;;;-0.27;76.75
54854;BME280;40747;49.480;8.658;2023-03-01T06:35:12;101136.44;;;-0.33;76.42
54854;BME280;40747;49.480;8.658;2023-03-01T06:37:38;101158.75;;;-0.06;75.94
54854;BME280;40747;49.480;8.658;2023-03-01T06:40:05;101151.59;;;-0.15;76.31
54854;BME280;40747;49.480;8.658;2023-03-01T06:42:34;101158.63;;;-0.09;75.61
54854;BME280;40747;49.480;8.658;2023-03-01T06:45:00;101144.66;;;-0.16;75.87
54854;BME280;40747;49.480;8.658;2023-03-01T06:47:25;101154.22;;;-0.13;76.15
54854;BME280;40747;49.480;8.658;2023-03-01T06:49:50;101141.06;;;-0.21;75.60
54854;BME280;40747;49.480;8.658;2023-03-01T06:52:15;101151.03;;;-0.03;75.49
54854;BME280;40747;49.480;8.658;2023-03-01T06:54:41;101150.97;;;-0.06;75.47
54854;BME280;40747;49.480;8.658;2023-03-01T06:57:06;101160.25;;;-0.13;76.39
54854;BME280;40747;49.480;8.658;2023-03-01T06:59:31;101159.16;;;-0.23;76.71
54854;BME280;40747;49.480;8.658;2023-03-01T07:01:56;101150.69;;;-0.15;76.28
54854;BME280;40747;49.480;8.658;2023-03-01T07:04:22;101139.66;;;-0.10;76.55
54854;BME280;40747;49.480;8.658;2023-03-01T07:06:47;101134.66;;;-0.02;76.60
54854;BME280;40747;49.480;8.658;2023-03-01T07:09:19;101153.97;;;0.11;76.07
54854;BME280;40747;49.480;8.658;2023-03-01T07:11:46;101148.22;;;0.23;75.91
54854;BME280;40747;49.480;8.658;2023-03-01T07:14:12;101142.03;;;0.16;75.50
54854;BME280;40747;49.480;8.658;2023-03-01T07:16:37;101141.69;;;0.37;74.95
54854;BME280;40747;49.480;8.658;2023-03-01T07:19:02;101145.38;;;0.48;74.01
54854;BME280;40747;49.480;8.658;2023-03-01T07:21:27;101126.31;;;0.45;73.88
54854;BME280;40747;49.480;8.658;2023-03-01T07:23:53;101129.97;;;0.55;74.25
54854;BME280;40747;49.480;8.658;2023-03-01T07:26:18;101144.06;;;0.64;73.94
54854;BME280;40747;49.480;8.658;2023-03-01T07:28:43;101131.19;;;0.69;73.46
54854;BME280;40747;49.480;8.658;2023-03-01T07:31:08;101139.59;;;0.59;74.80
54854;BME280;40747;49.480;8.658;2023-03-01T07:33:34;101130.09;;;0.59;74.53
54854;BME280;40747;49.480;8.658;2023-03-01T07:36:00;101130.63;;;0.82;73.95
54854;BME280;40747;49.480;8.658;2023-03-01T07:38:27;101131.25;;;0.72;73.96
54854;BME280;40747;49.480;8.658;2023-03-01T07:40:57;101123.19;;;0.60;74.61
54854;BME280;40747;49.480;8.658;2023-03-01T07:43:23;101100.13;;;0.34;74.47
54854;BME280;40747;49.480;8.658;2023-03-01T07:45:49;101118.34;;;0.75;74.52
54854;BME280;40747;49.480;8.658;2023-03-01T07:48:14;101108.44;;;0.97;73.73
54854;BME280;40747;49.480;8.658;2023-03-01T07:50:39;101099.69;;;0.92;72.67
54854;BME280;40747;49.480;8.658;2023-03-01T07:53:05;101113.75;;;1.03;72.77
54854;BME280;40747;49.480;8.658;2023-03-01T07:55:30;101122.53;;;1.08;72.43
54854;BME280;40747;49.480;8.658;2023-03-01T07:57:55;101108.53;;;1.00;72.58
54854;BME280;40747;49.480;8.658;2023-03-01T08:00:21;101105.91;;;0.98;71.98
54854;BME280;40747;49.480;8.658;2023-03-01T08:02:46;101106.88;;;1.04;72.47
54854;BME280;40747;49.480;8.658;2023-03-01T08:05:11;101106.94;;;1.08;71.50
54854;BME280;40747;49.480;8.658;2023-03-01T08:07:37;101101.72;;;1.05;71.45
54854;BME280;40747;49.480;8.658;2023-03-01T08:10:03;101098.34;;;1.11;71.11
54854;BME280;40747;49.480;8.658;2023-03-01T08:12:28;101101.91;;;1.14;72.70
54854;BME280;40747;49.480;8.658;2023-03-01T08:14:54;101103.97;;;1.31;72.69
54854;BME280;40747;49.480;8.658;2023-03-01T08:17:19;101096.03;;;1.25;71.18
54854;BME280;40747;49.480;8.658;2023-03-01T08:19:44;101087.25;;;1.17;71.41
54854;BME280;40747;49.480;8.658;2023-03-01T08:22:10;101111.09;;;1.43;70.63
54854;BME280;40747;49.480;8.658;2023-03-01T08:24:35;101105.09;;;1.45;69.85
54854;BME280;40747;49.480;8.658;2023-03-01T08:27:00;101101.06;;;1.60;69.53
54854;BME280;40747;49.480;8.658;2023-03-01T08:29:28;101099.00;;;1.91;68.35
54854;BME280;40747;49.480;8.658;2023-03-01T08:31:53;101100.06;;;2.02;68.43
54854;BME280;40747;49.480;8.658;2023-03-01T08:34:18;101089.72;;;2.07;67.50
54854;BME280;40747;49.480;8.658;2023-03-01T08:36:45;101096.72;;;2.09;67.45
54854;BME280;40747;49.480;8.658;2023-03-01T08:39:13;101096.09;;;2.26;66.81
54854;BME280;40747;49.480;8.658;2023-03-01T08:41:39;101084.94;;;2.93;66.10
54854;BME280;40747;49.480;8.658;2023-03-01T08:44:04;101077.75;;;3.46;64.63
54854;BME280;40747;49.480;8.658;2023-03-01T08:46:33;101079.69;;;3.67;62.98
54854;BME280;40747;49.480;8.658;2023-03-01T08:48:59;101080.59;;;3.70;62.82
54854;BME280;40747;49.480;8.658;2023-03-01T08:51:25;101075.91;;;3.35;62.16
54854;BME280;40747;49.480;8.658;2023-03-01T08:53:51;101064.88;;;3.61;62.78
54854;BME280;40747;49.480;8.658;2023-03-01T08:56:17;101071.03;;;3.71;61.41
54854;BME280;40747;49.480;8.658;2023-03-01T08:58:47;101066.78;;;3.76;61.20
54854;BME280;40747;49.480;8.658;2023-03-01T09:01:15;101039.16;;;3.98;60.71
54854;BME280;40747;49.480;8.658;2023-03-01T09:03:42;101066.41;;;4.40;60.58
54854;BME280;40747;49.480;8.658;2023-03-01T09:06:08;101059.59;;;4.69;60.29
54854;BME280;40747;49.480;8.658;2023-03-01T09:08:37;101056.22;;;4.87;59.14
54854;BME280;40747;49.480;8.658;2023-03-01T09:11:05;101050.03;;;4.66;59.50
54854;BME280;40747;49.480;8.658;2023-03-01T09:13:30;101030.97;;;4.80;58.45
54854;BME280;40747;49.480;8.658;2023-03-01T09:16:00;101052.81;;;5.03;57.23
54854;BME280;40747;49.480;8.658;2023-03-01T09:18:26;101047.75;;;5.79;57.00
54854;BME280;40747;49.480;8.658;2023-03-01T09:20:51;101052.09;;;5.96;55.15
54854;BME280;40747;49.480;8.658;2023-03-01T09:23:16;101060.66;;;5.09;57.11
54854;BME280;40747;49.480;8.658;2023-03-01T09:25:42;101040.56;;;4.90;56.88
54854;BME280;40747;49.480;8.658;2023-03-01T09:28:07;101052.03;;;5.32;56.68
54854;BME280;40747;49.480;8.658;2023-03-01T09:30:32;101040.69;;;5.30;55.89
54854;BME280;40747;49.480;8.658;2023-03-01T09:32:57;101041.59;;;5.34;55.93
54854;BME280;40747;49.480;8.658;2023-03-01T09:35:23;101036.38;;;5.49;56.09
54854;BME280;40747;49.480;8.658;2023-03-01T09:37:49;101039.03;;;5.60;57.00
54854;BME280;40747;49.480;8.658;2023-03-01T09:40:21;101033.81;;;6.31;54.77
54854;BME280;40747;49.480;8.658;2023-03-01T09:42:55;101033.59;;;7.02;54.33
54854;BME280;40747;49.480;8.658;2023-03-01T09:45:35;101027.28;;;7.41;52.92
54854;BME280;40747;49.480;8.658;2023-03-01T09:48:03;101029.09;;;7.31;52.37
54854;BME280;40747;49.480;8.658;2023-03-01T09:50:36;101032.19;;;7.87;51.21
54854;BME280;40747;49.480;8.658;2023-03-01T09:53:11;101028.38;;;8.24;51.01
54854;BME280;40747;49.480;8.658;2023-03-01T09:55:55;101018.34;;;8.63;49.76
54854;BME280;40747;49.480;8.658;2023-03-01T10:01:30;101022.00;;;7.47;51.27
54854;BME280;40747;49.480;8.658;2023-03-01T10:06:26;101019.41;;;7.39;50.94
54854;BME280;40747;49.480;8.658;2023-03-01T10:09:02;101015.66;;;7.76;51.92
54854;BME280;40747;49.480;8.658;2023-03-01T10:11:38;101015.66;;;7.79;51.67
54854;BME280;40747;49.480;8.658;2023-03-01T10:14:18;101007.19;;;8.47;50.44
54854;BME280;40747;49.480;8.658;2023-03-01T10:16:51;101004.56;;;8.41;49.08
54854;BME280;40747;49.480;8.658;2023-03-01T10:19:36;101004.59;;;7.33;51.78
54854;BME280;40747;49.480;8.658;2023-03-01T10:24:36;101008.03;;;7.45;52.52
54854;BME280;40747;49.480;8.658;2023-03-01T10:27:07;100989.97;;;6.95;52.15
54854;BME280;40747;49.480;8.658;2023-03-01T10:32:13;100980.41;;;6.91;53.48
54854;BME280;40747;49.480;8.658;2023-03-01T10:34:39;100975.81;;;7.26;52.01
54854;BME280;40747;49.480;8.658;2023-03-01T10:37:18;100970.66;;;7.12;52.38
54854;BME280;40747;49.480;8.658;2023-03-01T10:40:07;100970.59;;;7.21;53.25
54854;BME280;40747;49.480;8.658;2023-03-01T10:42:46;100968.72;;;7.42;51.40
54854;BME280;40747;49.480;8.658;2023-03-01T10:47:44;100957.25;;;7.60;51.15
54854;BME280;40747;49.480;8.658;2023-03-01T10:50:20;100965.22;;;7.43;51.55
54854;BME280;40747;49.480;8.658;2023-03-01T10:52:59;100945.88;;;7.59;51.97
54854;BME280;40747;49.480;8.658;2023-03-01T10:55:31;100946.50;;;7.87;50.83
54854;BME280;40747;49.480;8.658;2023-03-01T10:58:17;100943.94;;;7.83;51.07
54854;BME280;40747;49.480;8.658;2023-03-01T11:03:25;100929.66;;;8.10;50.72
54854;BME280;40747;49.480;8.658;2023-03-01T11:08:29;100927.59;;;7.50;51.18
54854;BME280;40747;49.480;8.658;2023-03-01T11:13:35;100901.22;;;7.67;51.75
54854;BME280;40747;49.480;8.658;2023-03-01T11:16:12;100914.78;;;8.12;50.94
54854;BME280;40747;49.480;8.658;2023-03-01T11:18:37;100914.84;;;8.04;50.03
54854;BME280;40747;49.480;8.658;2023-03-01T11:21:03;100904.75;;;8.44;49.85
54854;BME280;40747;49.480;8.658;2023-03-01T11:23:30;100907.41;;;8.42;49.51
54854;BME280;40747;49.480;8.658;2023-03-01T11:26:03;100899.75;;;8.95;49.44
54854;BME280;40747;49.480;8.658;2023-03-01T11:28:32;100901.13;;;9.18;48.87
54854;BME280;40747;49.480;8.658;2023-03-01T11:31:07;100885.00;;;9.91;47.39
54854;BME280;40747;49.480;8.658;2023-03-01T11:33:58;100883.38;;;10.29;46.69
54854;BME280;40747;49.480;8.658;2023-03-01T11:36:32;100872.38;;;10.09;46.46
54854;BME280;40747;49.480;8.658;2023-03-01T11:39:05;100877.13;;;9.40;48.25
54854;BME280;40747;49.480;8.658;2023-03-01T11:41:39;100859.34;;;9.04;48.50
54854;BME280;40747;49.480;8.658;2023-03-01T11:44:14;100860.25;;;9.01;47.95
54854;BME280;40747;49.480;8.658;2023-03-01T11:52:15;100847.53;;;9.77;46.79
54854;BME280;40747;49.480;8.658;2023-03-01T11:54:53;100850.13;;;9.80;48.27
54854;BME280;40747;49.480;8.658;2023-03-01T11:57:56;100854.28;;;8.90;48.44
54854;BME280;40747;49.480;8.658;2023-03-01T12:00:44;100843.41;;;9.13;49.03
54854;BME280;40747;49.480;8.658;2023-03-01T12:03:23;100825.63;;;9.28;48.51
54854;BME280;40747;49.480;8.658;2023-03-01T12:06:19;100839.25;;;8.98;49.94
54854;BME280;40747;49.480;8.658;2023-03-01T12:14:30;100811.81;;;8.60;50.75
54854;BME280;40747;49.480;8.658;2023-03-01T12:20:02;100809.19;;;7.93;52.35
54854;BME280;40747;49.480;8.658;2023-03-01T12:25:21;100790.00;;;7.88;52.72
54854;BME280;40747;49.480;8.658;2023-03-01T12:31:10;100790.34;;;7.59;53.85
54854;BME280;40747;49.480;8.658;2023-03-01T12:34:08;100790.56;;;7.34;53.51
54854;BME280;40747;49.480;8.658;2023-03-01T12:37:05;100788.56;;;7.59;53.88
54854;BME280;40747;49.480;8.658;2023-03-01T12:45:31;100770.19;;;7.64;54.13
54854;BME280;40747;49.480;8.658;2023-03-01T12:48:03;100766.16;;;7.29;53.46
54854;BME280;40747;49.480;8.658;2023-03-01T12:50:43;100760.69;;;7.53;53.62
54854;BME280;40747;49.480;8.658;2023-03-01T12:53:28;100762.63;;;7.31;52.84
54854;BME280;40747;49.480;8.658;2023-03-01T12:56:00;100748.56;;;7.40;53.80
54854;BME280;40747;49.480;8.658;2023-03-01T13:01:20;100745.94;;;7.42;54.18
54854;BME280;40747;49.480;8.658;2023-03-01T13:09:40;100735.25;;;7.60;53.75
54854;BME280;40747;49.480;8.658;2023-03-01T13:17:57;100731.78;;;7.58;51.67
54854;BME280;40747;49.480;8.658;2023-03-01T13:20:31;100727.19;;;7.76;53.28
54854;BME280;40747;49.480;8.658;2023-03-01T13:23:04;100728.91;;;7.78;52.37
54854;BME280;40747;49.480;8.658;2023-03-01T13:25:30;100728.03;;;7.79;52.13
54854;BME280;40747;49.480;8.658;2023-03-01T13:31:01;100700.97;;;7.79;52.38
54854;BME280;40747;49.480;8.658;2023-03-01T13:35:52;100699.84;;;7.97;52.87
54854;BME280;40747;49.480;8.658;2023-03-01T13:49:36;100686.16;;;8.35;50.87
54854;BME280;40747;49.480;8.658;2023-03-01T13:52:06;100688.81;;;8.31;52.21
54854;BME280;40747;49.480;8.658;2023-03-01T13:54:32;100686.84;;;8.48;52.01
54854;BME280;40747;49.480;8.658;2023-03-01T13:56:59;100689.66;;;8.34;51.62
54854;BME280;40747;49.480;8.658;2023-03-01T13:59:25;100683.78;;;8.17;51.79
54854;BME280;40747;49.480;8.658;2023-03-01T14:01:54;100679.38;;;8.20;52.39
54854;BME280;40747;49.480;8.658;2023-03-01T14:04:26;100656.84;;;8.06;52.00
54854;BME280;40747;49.480;8.658;2023-03-01T14:07:09;100682.06;;;8.14;52.09
54854;BME280;40747;49.480;8.658;2023-03-01T14:09:39;100679.63;;;8.03;52.36
54854;BME280;40747;49.480;8.658;2023-03-01T14:14:42;100678.88;;;7.94;51.86
54854;BME280;40747;49.480;8.658;2023-03-01T14:19:58;100674.47;;;7.97;50.80
54854;BME280;40747;49.480;8.658;2023-03-01T14:22:27;100676.91;;;8.10;51.18
54854;BME280;40747;49.480;8.658;2023-03-01T14:25:02;100680.38;;;8.13;51.17
54854;BME280;40747;49.480;8.658;2023-03-01T14:27:33;100675.19;;;8.07;51.50
54854;BME280;40747;49.480;8.658;2023-03-01T14:30:02;100670.84;;;8.06;50.85
54854;BME280;40747;49.480;8.658;2023-03-01T14:32:30;100663.72;;;8.16;51.16
54854;BME280;40747;49.480;8.658;2023-03-01T14:34:57;100659.25;;;8.19;50.20